createdAt,value
2023-04-27T00:01:54.912Z,35.72
2023-04-27T00:04:22.374Z,35.95
2023-04-27T00:06:49.466Z,35.89
2023-04-27T00:09:16.609Z,36.01
2023-04-27T00:11:43.534Z,36.12
2023-04-27T00:14:10.665Z,36.11
2023-04-27T00:16:37.436Z,36.28
2023-04-27T00:19:04.502Z,36.34
2023-04-27T00:21:32.045Z,36.24
2023-04-27T00:23:59.018Z,36.36
2023-04-27T00:26:26.836Z,36.03
2023-04-27T00:28:53.920Z,35.96
2023-04-27T00:31:20.883Z,36.14
2023-04-27T00:33:48.012Z,36.33
2023-04-27T00:36:14.685Z,36.40
2023-04-27T00:38:41.744Z,36.54
2023-04-27T00:41:08.480Z,36.30
2023-04-27T00:43:42.857Z,36.30
2023-04-27T00:46:09.939Z,36.22
2023-04-27T00:48:37.517Z,36.24
2023-04-27T00:51:04.388Z,36.23
2023-04-27T00:53:31.462Z,36.46
2023-04-27T00:55:58.700Z,36.72
2023-04-27T00:58:26.081Z,36.36
2023-04-27T01:00:52.891Z,36.50
2023-04-27T01:03:20.241Z,36.75
2023-04-27T01:05:47.068Z,36.73
2023-04-27T01:08:14.154Z,36.70
2023-04-27T01:10:41.371Z,36.81
2023-04-27T01:13:08.412Z,36.87
2023-04-27T01:15:35.184Z,37.07
2023-04-27T01:18:02.667Z,36.96
2023-04-27T01:20:30.427Z,37.02
2023-04-27T01:22:57.654Z,36.75
2023-04-27T01:25:24.773Z,36.76
2023-04-27T01:27:51.895Z,37.07
2023-04-27T01:30:18.729Z,36.97
2023-04-27T01:32:45.887Z,36.95
2023-04-27T01:35:12.634Z,36.97
2023-04-27T01:37:39.795Z,36.70
2023-04-27T01:40:07.388Z,37.16
2023-04-27T01:42:34.461Z,37.02
2023-04-27T01:45:01.294Z,37.17
2023-04-27T01:47:28.351Z,37.04
2023-04-27T01:49:55.088Z,37.23
2023-04-27T01:52:22.171Z,37.24
2023-04-27T01:54:48.960Z,37.01
2023-04-27T01:57:16.279Z,37.24
2023-04-27T01:59:43.021Z,37.12
2023-04-27T02:02:10.089Z,37.01
2023-04-27T02:04:36.939Z,36.89
2023-04-27T02:07:04.130Z,37.33
2023-04-27T02:09:30.840Z,37.28
2023-04-27T02:11:57.829Z,37.04
2023-04-27T02:14:24.596Z,36.84
2023-04-27T02:16:51.656Z,37.05
2023-04-27T02:19:18.540Z,37.24
2023-04-27T02:21:45.557Z,37.40
2023-04-27T02:24:12.258Z,37.31
2023-04-27T02:26:39.340Z,37.36
2023-04-27T02:29:06.304Z,37.09
2023-04-27T02:31:33.831Z,37.51
2023-04-27T02:34:00.713Z,37.25
2023-04-27T02:36:27.946Z,37.21
2023-04-27T02:38:55.422Z,37.34
2023-04-27T02:41:22.406Z,37.15
2023-04-27T02:43:50.487Z,37.51
2023-04-27T02:46:17.506Z,37.06
2023-04-27T02:48:44.297Z,37.11
2023-04-27T02:51:11.451Z,37.48
2023-04-27T02:53:38.149Z,37.73
2023-04-27T02:56:05.295Z,37.38
2023-04-27T02:58:32.199Z,37.46
2023-04-27T03:00:59.258Z,37.52
2023-04-27T03:03:26.237Z,37.55
2023-04-27T03:05:53.423Z,37.35
2023-04-27T03:08:20.123Z,37.35
2023-04-27T03:10:47.198Z,37.29
2023-04-27T03:13:16.680Z,37.85
2023-04-27T03:15:43.650Z,37.44
2023-04-27T03:18:11.368Z,37.53
2023-04-27T03:20:38.430Z,37.56
2023-04-27T03:23:05.204Z,37.20
2023-04-27T03:25:32.257Z,37.38
2023-04-27T03:27:58.998Z,37.44
2023-04-27T03:30:26.017Z,37.82
2023-04-27T03:32:52.763Z,37.63
2023-04-27T03:35:19.849Z,37.43
2023-04-27T03:37:46.907Z,37.76
2023-04-27T03:40:14.524Z,37.61
2023-04-27T03:42:41.322Z,37.83
2023-04-27T03:45:08.933Z,37.62
2023-04-27T03:47:35.674Z,37.91
2023-04-27T03:50:02.792Z,37.71
2023-04-27T03:52:29.504Z,37.81
2023-04-27T03:54:56.547Z,37.95
2023-04-27T03:57:23.334Z,37.66
2023-04-27T03:59:50.666Z,37.85
2023-04-27T04:02:17.448Z,37.67
2023-04-27T04:04:44.754Z,37.98
2023-04-27T04:07:11.922Z,37.84
2023-04-27T04:09:38.946Z,37.60
2023-04-27T04:12:06.410Z,37.91
2023-04-27T04:14:33.463Z,37.59
2023-04-27T04:17:00.222Z,37.59
2023-04-27T04:19:27.278Z,37.68
2023-04-27T04:21:54.714Z,37.64
2023-04-27T04:24:21.786Z,37.91
2023-04-27T04:26:48.640Z,37.71
2023-04-27T04:29:15.952Z,38.02
2023-04-27T04:31:43.025Z,38.15
2023-04-27T04:34:10.144Z,38.17
2023-04-27T04:36:36.984Z,38.04
2023-04-27T04:39:05.347Z,37.93
2023-04-27T04:41:32.485Z,38.13
2023-04-27T04:43:59.626Z,37.99
2023-04-27T04:46:26.425Z,38.12
2023-04-27T04:48:54.726Z,38.39
2023-04-27T04:51:21.693Z,38.19
2023-04-27T04:53:48.824Z,38.78
2023-04-27T04:56:16.887Z,38.63
2023-04-27T04:58:43.980Z,38.77
2023-04-27T05:01:10.963Z,39.09
2023-04-27T05:03:38.284Z,38.57
2023-04-27T05:06:05.535Z,38.67
2023-04-27T05:08:32.624Z,38.53
2023-04-27T05:10:59.415Z,38.53
2023-04-27T05:13:26.925Z,38.22
2023-04-27T05:15:53.777Z,38.29
2023-04-27T05:18:20.825Z,38.58
2023-04-27T05:20:47.543Z,38.48
2023-04-27T05:23:14.584Z,38.32
2023-04-27T05:25:43.912Z,38.22
2023-04-27T05:28:11.043Z,38.26
2023-04-27T05:30:38.079Z,38.28
2023-04-27T05:33:05.464Z,38.13
2023-04-27T05:35:32.574Z,38.46
2023-04-27T05:37:59.624Z,37.99
2023-04-27T05:40:26.619Z,37.81
2023-04-27T05:42:53.788Z,38.03
2023-04-27T05:45:20.778Z,38.12
2023-04-27T05:47:48.080Z,37.89
2023-04-27T05:50:14.862Z,38.10
2023-04-27T05:52:42.059Z,37.92
2023-04-27T05:55:09.072Z,37.92
2023-04-27T05:57:36.196Z,37.93
2023-04-27T06:00:08.584Z,37.50
2023-04-27T06:02:35.816Z,37.74
2023-04-27T06:05:03.780Z,37.58
2023-04-27T06:07:31.396Z,37.62
2023-04-27T06:09:58.244Z,37.66
2023-04-27T06:12:25.274Z,37.81
2023-04-27T06:14:52.183Z,37.43
2023-04-27T06:17:19.209Z,37.43
2023-04-27T06:19:46.099Z,37.04
2023-04-27T06:22:13.210Z,37.07
2023-04-27T06:24:39.935Z,37.00
2023-04-27T06:27:06.922Z,36.89
2023-04-27T06:29:33.761Z,36.97
2023-04-27T06:32:01.807Z,36.81
2023-04-27T06:34:28.837Z,36.63
2023-04-27T06:36:56.082Z,36.88
2023-04-27T06:39:22.900Z,36.79
2023-04-27T06:41:49.937Z,36.83
2023-04-27T06:44:16.614Z,36.63
2023-04-27T06:46:43.679Z,36.67
2023-04-27T06:49:10.783Z,36.92
2023-04-27T06:51:37.883Z,36.83
2023-04-27T06:54:04.883Z,37.10
2023-04-27T06:56:32.043Z,36.92
2023-04-27T06:58:58.835Z,36.32
2023-04-27T07:01:26.193Z,36.78
2023-04-27T07:03:53.371Z,37.06
2023-04-27T07:06:20.715Z,37.10
2023-04-27T07:08:47.480Z,37.35
2023-04-27T07:11:16.287Z,37.49
2023-04-27T07:13:43.366Z,37.04
2023-04-27T07:16:10.473Z,36.97
2023-04-27T07:18:37.295Z,36.89
2023-04-27T07:21:05.686Z,37.02
2023-04-27T07:23:32.465Z,36.80
2023-04-27T07:25:59.478Z,36.85
2023-04-27T07:28:28.307Z,37.00
2023-04-27T07:30:55.956Z,36.82
2023-04-27T07:33:22.694Z,36.75
2023-04-27T07:35:51.152Z,36.63
2023-04-27T07:38:18.540Z,36.69
2023-04-27T07:40:46.686Z,36.60
2023-04-27T07:43:13.493Z,36.60
2023-04-27T07:45:41.489Z,36.40
2023-04-27T07:48:08.612Z,36.46
2023-04-27T07:50:35.905Z,36.32
2023-04-27T07:53:02.707Z,36.35
2023-04-27T07:55:29.789Z,36.43
2023-04-27T07:57:56.869Z,36.42
2023-04-27T08:00:25.435Z,36.06
2023-04-27T08:02:55.447Z,36.34
2023-04-27T08:05:23.180Z,36.07
2023-04-27T08:07:53.402Z,36.19
2023-04-27T08:10:21.827Z,36.14
2023-04-27T08:12:48.750Z,36.00
2023-04-27T08:15:15.890Z,35.75
2023-04-27T08:17:43.681Z,36.02
2023-04-27T08:20:14.530Z,35.86
2023-04-27T08:22:41.427Z,36.05
2023-04-27T08:25:09.175Z,36.08
2023-04-27T08:27:40.183Z,36.00
2023-04-27T08:30:07.899Z,36.19
2023-04-27T08:32:34.689Z,35.85
2023-04-27T08:35:01.815Z,35.94
2023-04-27T08:37:28.567Z,35.94
2023-04-27T08:39:55.600Z,35.87
2023-04-27T08:42:22.350Z,35.78
2023-04-27T08:44:49.402Z,35.81
2023-04-27T08:47:16.097Z,35.50
2023-04-27T08:49:43.112Z,35.67
2023-04-27T08:52:16.452Z,35.85
2023-04-27T08:54:43.689Z,35.70
2023-04-27T08:57:13.673Z,35.68
2023-04-27T08:59:40.958Z,35.74
2023-04-27T09:02:07.973Z,35.58
2023-04-27T09:04:39.393Z,35.39
2023-04-27T09:07:16.613Z,35.17
2023-04-27T09:09:44.146Z,35.15
2023-04-27T09:12:21.577Z,35.23
2023-04-27T09:14:57.935Z,35.26
2023-04-27T09:17:28.306Z,35.26
2023-04-27T09:20:09.133Z,35.16
2023-04-27T09:22:58.538Z,35.21
2023-04-27T09:25:31.391Z,34.80
2023-04-27T09:27:59.029Z,34.88
2023-04-27T09:30:26.914Z,35.18
2023-04-27T09:32:54.313Z,35.43
2023-04-27T09:35:32.157Z,34.97
2023-04-27T09:37:59.377Z,34.88
2023-04-27T09:40:29.606Z,34.65
2023-04-27T09:42:57.411Z,34.82
2023-04-27T09:45:25.105Z,35.11
2023-04-27T09:47:52.101Z,35.10
2023-04-27T09:50:19.302Z,34.70
2023-04-27T09:52:46.492Z,34.48
2023-04-27T09:55:19.877Z,34.70
2023-04-27T09:58:06.371Z,34.61
2023-04-27T10:00:42.839Z,33.95
2023-04-27T10:03:31.173Z,34.10
2023-04-27T10:06:10.629Z,34.30
2023-04-27T10:08:37.379Z,34.31
2023-04-27T10:11:17.564Z,34.24
2023-04-27T10:13:54.811Z,34.21
2023-04-27T10:16:22.602Z,33.88
2023-04-27T10:18:55.689Z,34.02
2023-04-27T10:21:23.688Z,33.80
2023-04-27T10:23:51.345Z,33.86
2023-04-27T10:26:25.584Z,33.52
2023-04-27T10:29:07.184Z,33.74
2023-04-27T10:31:34.485Z,33.79
2023-04-27T10:34:08.586Z,34.03
2023-04-27T10:36:39.404Z,34.01
2023-04-27T10:39:18.968Z,34.07
2023-04-27T10:41:51.078Z,33.46
2023-04-27T10:44:29.305Z,33.47
2023-04-27T10:47:00.648Z,33.67
2023-04-27T10:49:30.700Z,33.52
2023-04-27T10:51:58.921Z,33.29
2023-04-27T10:54:28.377Z,33.36
2023-04-27T10:57:03.983Z,33.27
2023-04-27T10:59:30.683Z,33.65
2023-04-27T11:01:57.789Z,33.46
2023-04-27T11:04:24.774Z,33.36
2023-04-27T11:06:53.719Z,33.18
2023-04-27T11:09:27.511Z,33.12
2023-04-27T11:11:54.518Z,33.07
2023-04-27T11:14:21.568Z,33.46
2023-04-27T11:16:48.796Z,33.11
2023-04-27T11:19:15.994Z,32.96
2023-04-27T11:21:43.438Z,33.03
2023-04-27T11:24:12.098Z,32.76
2023-04-27T11:26:40.431Z,32.96
2023-04-27T11:29:13.735Z,32.58
2023-04-27T11:31:47.396Z,32.45
2023-04-27T11:34:19.397Z,32.28
2023-04-27T11:37:17.788Z,32.23
2023-04-27T11:39:45.912Z,32.50
2023-04-27T11:42:26.303Z,32.20
2023-04-27T11:45:00.178Z,32.44
2023-04-27T11:47:31.030Z,32.04
2023-04-27T11:49:58.868Z,31.89
2023-04-27T11:52:29.679Z,32.36
2023-04-27T11:54:57.443Z,32.01
2023-04-27T11:57:26.236Z,32.18
2023-04-27T11:59:53.802Z,32.27
2023-04-27T12:02:23.966Z,32.22
2023-04-27T12:04:51.864Z,32.18
2023-04-27T12:07:19.099Z,32.61
2023-04-27T12:09:46.251Z,32.15
2023-04-27T12:12:22.418Z,32.24
2023-04-27T12:14:50.292Z,31.98
2023-04-27T12:17:17.287Z,31.82
2023-04-27T12:19:44.395Z,31.51
2023-04-27T12:22:11.203Z,31.25
2023-04-27T12:24:38.374Z,31.25
2023-04-27T12:27:05.209Z,31.51
2023-04-27T12:29:32.498Z,30.67
2023-04-27T12:31:59.751Z,30.76
2023-04-27T12:34:28.307Z,30.89
2023-04-27T12:36:55.152Z,31.50
2023-04-27T12:39:25.126Z,31.39
2023-04-27T12:41:52.134Z,31.04
2023-04-27T12:44:19.780Z,30.88
2023-04-27T12:46:48.412Z,31.15
2023-04-27T12:49:15.851Z,31.01
2023-04-27T12:51:42.766Z,30.52
2023-04-27T12:54:10.200Z,30.84
2023-04-27T12:56:37.193Z,31.44
2023-04-27T12:59:04.784Z,31.17
2023-04-27T13:01:31.789Z,31.04
2023-04-27T13:04:00.160Z,30.79
2023-04-27T13:06:27.489Z,30.99
2023-04-27T13:08:54.619Z,30.69
2023-04-27T13:11:21.421Z,30.23
2023-04-27T13:13:48.961Z,30.34
2023-04-27T13:16:16.606Z,30.47
2023-04-27T13:18:49.464Z,30.20
2023-04-27T13:21:16.660Z,30.00
2023-04-27T13:23:43.743Z,29.82
2023-04-27T13:26:11.519Z,30.56
2023-04-27T13:28:38.715Z,30.47
2023-04-27T13:31:06.094Z,30.84
2023-04-27T13:33:41.582Z,30.53
2023-04-27T13:36:11.915Z,30.70
2023-04-27T13:38:39.354Z,30.40
2023-04-27T13:41:06.720Z,30.18
2023-04-27T13:43:34.158Z,30.33
2023-04-27T13:46:01.845Z,29.97
2023-04-27T13:48:29.169Z,30.48
2023-04-27T13:50:56.171Z,30.13
2023-04-27T13:53:26.952Z,30.34
2023-04-27T13:55:56.639Z,30.34
2023-04-27T13:58:25.846Z,30.24
2023-04-27T14:00:53.705Z,30.20
2023-04-27T14:03:21.640Z,30.39
2023-04-27T14:05:49.079Z,30.17
2023-04-27T14:08:16.206Z,30.09
2023-04-27T14:10:44.220Z,30.30
2023-04-27T14:13:11.971Z,30.18
2023-04-27T14:15:38.806Z,29.84
2023-04-27T14:18:07.670Z,30.19
2023-04-27T14:20:35.561Z,30.62
2023-04-27T14:23:04.099Z,31.00
2023-04-27T14:25:32.923Z,30.81
2023-04-27T14:28:05.313Z,30.92
2023-04-27T14:30:32.906Z,30.82
2023-04-27T14:33:00.204Z,30.57
2023-04-27T14:35:27.683Z,30.61
2023-04-27T14:37:56.816Z,30.34
2023-04-27T14:40:24.943Z,30.48
2023-04-27T14:42:52.068Z,30.71
2023-04-27T14:45:19.079Z,30.42
2023-04-27T14:47:46.524Z,30.66
2023-04-27T14:50:13.546Z,30.09
2023-04-27T14:52:40.710Z,29.81
2023-04-27T14:55:07.812Z,30.02
2023-04-27T14:57:36.748Z,30.01
2023-04-27T15:00:09.839Z,29.97
2023-04-27T15:02:37.816Z,29.58
2023-04-27T15:05:06.007Z,29.51
2023-04-27T15:07:33.363Z,29.42
2023-04-27T15:10:00.212Z,29.47
2023-04-27T15:12:27.353Z,29.37
2023-04-27T15:14:54.254Z,29.73
2023-04-27T15:17:21.505Z,29.51
2023-04-27T15:19:48.297Z,29.31
2023-04-27T15:22:15.383Z,29.52
2023-04-27T15:24:42.145Z,29.27
2023-04-27T15:27:09.864Z,29.66
2023-04-27T15:29:37.041Z,29.79
2023-04-27T15:32:04.307Z,29.76
2023-04-27T15:34:32.562Z,29.78
2023-04-27T15:36:59.679Z,29.90
2023-04-27T15:39:27.382Z,30.01
2023-04-27T15:41:54.534Z,30.24
2023-04-27T15:44:21.354Z,30.48
2023-04-27T15:46:48.546Z,31.16
2023-04-27T15:49:16.328Z,30.49
2023-04-27T15:51:43.604Z,30.62
2023-04-27T15:54:10.691Z,30.40
2023-04-27T15:56:37.787Z,30.53
2023-04-27T15:59:04.666Z,30.37
2023-04-27T16:01:31.844Z,30.51
2023-04-27T16:03:58.824Z,30.26
2023-04-27T16:06:33.405Z,30.26
2023-04-27T16:09:00.933Z,30.44
2023-04-27T16:11:28.041Z,30.13
2023-04-27T16:13:54.858Z,30.29
2023-04-27T16:16:22.077Z,30.89
2023-04-27T16:18:48.874Z,30.89
2023-04-27T16:21:16.002Z,31.02
2023-04-27T16:23:43.459Z,30.99
2023-04-27T16:26:11.127Z,31.30
2023-04-27T16:28:39.403Z,31.14
2023-04-27T16:31:06.534Z,31.46
2023-04-27T16:33:33.404Z,31.66
2023-04-27T16:36:00.828Z,31.03
2023-04-27T16:38:27.691Z,31.34
2023-04-27T16:40:56.162Z,31.00
2023-04-27T16:43:23.115Z,31.61
2023-04-27T16:45:50.346Z,31.20
2023-04-27T16:48:17.675Z,31.29
2023-04-27T16:50:46.586Z,31.62
2023-04-27T16:53:15.050Z,31.04
2023-04-27T16:55:42.305Z,31.24
2023-04-27T16:58:09.251Z,31.58
2023-04-27T17:00:36.499Z,31.90
2023-04-27T17:03:03.559Z,31.61
2023-04-27T17:05:30.788Z,31.50
2023-04-27T17:07:57.578Z,31.38
2023-04-27T17:10:24.926Z,31.60
2023-04-27T17:12:51.841Z,31.95
2023-04-27T17:15:19.010Z,31.69
2023-04-27T17:17:47.322Z,31.94
2023-04-27T17:20:14.465Z,32.11
2023-04-27T17:22:41.340Z,32.41
2023-04-27T17:25:09.837Z,32.68
2023-04-27T17:27:36.685Z,32.74
2023-04-27T17:30:05.298Z,32.68
2023-04-27T17:32:32.581Z,32.66
2023-04-27T17:34:59.769Z,32.41
2023-04-27T17:37:26.664Z,32.68
2023-04-27T17:39:55.168Z,32.85
2023-04-27T17:42:22.188Z,32.91
2023-04-27T17:44:49.257Z,33.00
2023-04-27T17:47:18.787Z,32.98
2023-04-27T17:49:46.537Z,33.22
2023-04-27T17:52:13.440Z,32.95
2023-04-27T17:54:44.056Z,32.97
2023-04-27T17:57:10.987Z,32.80
2023-04-27T17:59:38.180Z,33.00
2023-04-27T18:02:05.177Z,32.84
2023-04-27T18:04:32.634Z,33.23
2023-04-27T18:06:59.613Z,33.12
2023-04-27T18:09:28.777Z,33.35
2023-04-27T18:11:56.939Z,33.16
2023-04-27T18:14:25.417Z,33.08
2023-04-27T18:16:54.979Z,33.38
2023-04-27T18:19:24.455Z,33.28
2023-04-27T18:21:52.649Z,33.52
2023-04-27T18:24:21.585Z,33.40
2023-04-27T18:26:48.466Z,33.28
2023-04-27T18:29:15.903Z,33.56
2023-04-27T18:31:43.403Z,33.12
2023-04-27T18:34:10.775Z,33.30
2023-04-27T18:36:37.621Z,33.52
2023-04-27T18:39:05.337Z,33.28
2023-04-27T18:41:32.252Z,33.50
2023-04-27T18:44:06.750Z,33.22
2023-04-27T18:46:33.884Z,33.57
2023-04-27T18:49:06.108Z,33.23
2023-04-27T18:51:36.635Z,33.56
2023-04-27T18:56:31.574Z,33.50
2023-04-27T18:59:00.835Z,33.31
2023-04-27T19:01:30.206Z,33.56
2023-04-27T19:03:58.024Z,33.76
2023-04-27T19:06:25.040Z,33.61
2023-04-27T19:08:52.249Z,33.45
2023-04-27T19:11:22.429Z,33.60
2023-04-27T19:13:51.103Z,33.81
2023-04-27T19:16:19.430Z,33.75
2023-04-27T19:18:48.386Z,33.83
2023-04-27T19:21:16.529Z,33.94
2023-04-27T19:23:45.533Z,34.03
2023-04-27T19:26:13.918Z,34.17
2023-04-27T19:28:41.604Z,34.10
2023-04-27T19:31:09.997Z,33.98
2023-04-27T19:33:37.293Z,34.04
2023-04-27T19:36:04.452Z,33.99
2023-04-27T19:38:32.204Z,34.27
2023-04-27T19:40:59.243Z,34.28
2023-04-27T19:43:26.390Z,34.20
2023-04-27T19:45:53.301Z,34.30
2023-04-27T19:48:20.493Z,34.39
2023-04-27T19:50:47.890Z,34.21
2023-04-27T19:53:16.098Z,34.39
2023-04-27T19:55:42.998Z,34.36
2023-04-27T19:58:10.189Z,34.45
2023-04-27T20:00:37.118Z,34.62
2023-04-27T20:03:06.394Z,34.47
2023-04-27T20:05:35.199Z,34.60
2023-04-27T20:08:02.557Z,34.79
2023-04-27T20:10:29.980Z,34.58
2023-04-27T20:12:57.586Z,34.67
2023-04-27T20:15:24.901Z,34.79
2023-04-27T20:17:53.025Z,34.74
2023-04-27T20:20:20.752Z,34.66
2023-04-27T20:22:48.528Z,34.67
2023-04-27T20:25:15.694Z,34.53
2023-04-27T20:27:42.850Z,34.79
2023-04-27T20:30:09.995Z,34.92
2023-04-27T20:32:39.514Z,34.92
2023-04-27T20:35:11.367Z,34.85
2023-04-27T20:37:39.872Z,35.09
2023-04-27T20:40:13.434Z,35.16
2023-04-27T20:42:42.583Z,35.20
2023-04-27T20:45:11.517Z,35.23
2023-04-27T20:47:38.798Z,35.06
2023-04-27T20:50:06.432Z,35.20
2023-04-27T20:52:34.765Z,34.97
2023-04-27T20:55:04.195Z,35.05
2023-04-27T20:57:31.538Z,35.05
2023-04-27T20:59:58.394Z,35.30
2023-04-27T21:02:25.506Z,35.50
2023-04-27T21:04:53.163Z,35.36
2023-04-27T21:07:20.333Z,35.19
2023-04-27T21:09:47.206Z,35.47
2023-04-27T21:12:17.783Z,35.39
2023-04-27T21:14:44.782Z,35.35
2023-04-27T21:17:15.161Z,35.48
2023-04-27T21:19:42.247Z,35.39
2023-04-27T21:22:09.444Z,35.49
2023-04-27T21:24:36.345Z,35.53
2023-04-27T21:27:03.892Z,35.47
2023-04-27T21:29:30.694Z,35.50
2023-04-27T21:31:57.730Z,35.54
2023-04-27T21:34:24.565Z,35.83
2023-04-27T21:36:51.716Z,35.69
2023-04-27T21:39:18.482Z,35.47
2023-04-27T21:41:45.666Z,35.78
2023-04-27T21:44:12.532Z,35.67
2023-04-27T21:46:39.601Z,35.82
2023-04-27T21:49:06.491Z,35.72
2023-04-27T21:51:34.814Z,35.84
2023-04-27T21:54:01.838Z,35.56
2023-04-27T21:56:28.923Z,35.78
2023-04-27T21:58:55.707Z,35.86
2023-04-27T22:01:27.301Z,35.94
2023-04-27T22:03:54.342Z,35.94
2023-04-27T22:06:21.868Z,36.08
2023-04-27T22:08:48.642Z,35.87
2023-04-27T22:11:15.810Z,35.84
2023-04-27T22:13:42.626Z,36.07
2023-04-27T22:16:11.049Z,35.97
2023-04-27T22:18:39.005Z,35.90
2023-04-27T22:21:06.060Z,36.12
2023-04-27T22:23:32.826Z,36.04
2023-04-27T22:25:59.933Z,35.81
2023-04-27T22:28:26.740Z,36.11
2023-04-27T22:30:54.735Z,36.03
2023-04-27T22:33:21.427Z,35.81
2023-04-27T22:35:48.496Z,36.05
2023-04-27T22:38:15.187Z,35.99
2023-04-27T22:40:42.209Z,36.07
2023-04-27T22:43:08.894Z,36.10
2023-04-27T22:45:38.080Z,36.07
2023-04-27T22:48:05.666Z,36.21
2023-04-27T22:50:34.031Z,36.38
2023-04-27T22:53:01.070Z,36.33
2023-04-27T22:55:28.410Z,36.44
2023-04-27T22:57:55.139Z,36.21
2023-04-27T23:00:22.351Z,36.44
2023-04-27T23:02:49.195Z,36.17
2023-04-27T23:05:16.718Z,35.87
2023-04-27T23:07:43.620Z,36.54
2023-04-27T23:10:11.028Z,36.31
2023-04-27T23:12:38.777Z,36.50
2023-04-27T23:15:06.230Z,36.20
2023-04-27T23:17:33.620Z,36.72
2023-04-27T23:20:01.535Z,36.37
2023-04-27T23:22:28.354Z,36.39
2023-04-27T23:24:55.431Z,36.37
2023-04-27T23:27:23.585Z,36.55
2023-04-27T23:29:50.752Z,36.36
2023-04-27T23:32:17.573Z,36.88
2023-04-27T23:34:44.603Z,36.71
2023-04-27T23:37:11.350Z,36.56
2023-04-27T23:39:38.414Z,36.66
2023-04-27T23:42:05.247Z,36.66
2023-04-27T23:44:32.581Z,36.71
2023-04-27T23:46:59.393Z,36.72
2023-04-27T23:49:26.427Z,36.58
2023-04-27T23:51:53.151Z,36.62
2023-04-27T23:54:20.230Z,37.17
2023-04-27T23:56:47.308Z,36.86
2023-04-27T23:59:15.111Z,36.71
